EIN weather

Eindhoven Airport
Eindhoven, Noord-Brabant, Netherlands

Public forecast

Using degrees Celsius for public forecast. Weather courtesy of forecast.io.

Current aviation weather report (METAR) for Eindhoven Airport

Retrieved 2019/10/15 07:25 UTC (12 minutes ago):

EHEH 150725Z AUTO 18005KT 9999 -RADZ FEW015CB BKN058 OVC063 14/13 Q1006 BLU 21004KT 7000 FEW012 SCT018 BKN050 TEMPO 4500 SHRA RA SCT012 BKN030 BKN050CB

Aviation forecast (TAF) for Eindhoven Airport

Retrieved 2019/10/15 06:00 UTC (2 hours ago):

TAF EHEH 150526Z 1506/1612 18004KT 9999 FEW025 BECMG 1507/1510 21006KT FEW012 SCT018 BKN060 TEMPO 1508/1516 4500 SHRA RA SCT012 BKN030 BKN050CB PROB30 TEMPO 1508/1513 23010G20KT 3000 SHRA TSRA SCT008 BKN012 BKN050CB PROB40 TEMPO 1518/1522 SCT015CB BECMG 1519/1521 SCT030 PROB30 TEMPO 1603/1608 SCT012 TEMPO 1610/1612 4000 RA SCT015 BKN020